createdAt,value
2022-11-13T00:01:17.624Z,102108.00
2022-11-13T00:03:45.678Z,102111.00
2022-11-13T00:06:15.769Z,102101.00
2022-11-13T00:08:43.512Z,102098.00
2022-11-13T00:11:13.302Z,102100.00
2022-11-13T00:13:41.142Z,102110.00
2022-11-13T00:16:12.213Z,102104.00
2022-11-13T00:18:40.515Z,102104.00
2022-11-13T00:21:09.475Z,102101.00
2022-11-13T00:23:38.936Z,102101.00
2022-11-13T00:26:08.299Z,102101.00
2022-11-13T00:28:36.013Z,102093.00
2022-11-13T00:31:05.658Z,102096.00
2022-11-13T00:36:26.259Z,102080.00
2022-11-13T00:38:56.187Z,102073.00
2022-11-13T00:41:24.591Z,102087.00
2022-11-13T00:43:52.788Z,102082.00
2022-11-13T00:46:20.801Z,102086.00
2022-11-13T00:48:49.209Z,102076.00
2022-11-13T00:51:16.922Z,102071.00
2022-11-13T00:53:44.562Z,102081.00
2022-11-13T00:56:13.596Z,102089.00
2022-11-13T00:58:41.310Z,102086.00
2022-11-13T01:01:11.869Z,102077.00
2022-11-13T01:03:39.661Z,102078.00
2022-11-13T01:06:12.151Z,102081.00
2022-11-13T01:08:39.891Z,102088.00
2022-11-13T01:11:13.601Z,102085.00
2022-11-13T01:13:41.557Z,102075.00
2022-11-13T01:16:11.246Z,102080.00
2022-11-13T01:18:39.250Z,102073.00
2022-11-13T01:21:09.531Z,102072.00
2022-11-13T01:23:37.821Z,102069.00
2022-11-13T01:26:07.952Z,102080.00
2022-11-13T01:28:37.222Z,102073.00
2022-11-13T01:31:06.720Z,102061.00
2022-11-13T01:33:34.805Z,102056.00
2022-11-13T01:36:03.014Z,102057.00
2022-11-13T01:38:35.742Z,102058.00
2022-11-13T01:41:04.465Z,102061.00
2022-11-13T01:43:34.093Z,102045.00
2022-11-13T01:46:17.176Z,102049.00
2022-11-13T01:48:48.067Z,102059.00
2022-11-13T01:51:22.660Z,102055.00
2022-11-13T01:53:50.952Z,102047.00
2022-11-13T01:56:18.917Z,102043.00
2022-11-13T01:58:52.405Z,102051.00
2022-11-13T02:01:21.459Z,102053.00
2022-11-13T02:03:49.228Z,102038.00
2022-11-13T02:06:17.282Z,102039.00
2022-11-13T02:08:45.523Z,102039.00
2022-11-13T02:11:14.216Z,102039.00
2022-11-13T02:13:42.671Z,102037.00
2022-11-13T02:16:11.555Z,102028.00
2022-11-13T02:18:41.135Z,102034.00
2022-11-13T02:21:17.741Z,102027.00
2022-11-13T02:23:51.846Z,102023.00
2022-11-13T02:26:24.864Z,102026.00
2022-11-13T02:28:52.686Z,102033.00
2022-11-13T02:31:20.376Z,102042.00
2022-11-13T02:33:48.090Z,102039.00
2022-11-13T02:36:16.212Z,102033.00
2022-11-13T02:38:44.738Z,102042.00
2022-11-13T02:41:12.442Z,102043.00
2022-11-13T02:43:41.510Z,102040.00
2022-11-13T02:46:09.177Z,102043.00
2022-11-13T02:48:36.904Z,102044.00
2022-11-13T02:51:05.310Z,102038.00
2022-11-13T02:53:33.096Z,102034.00
2022-11-13T02:56:00.820Z,102031.00
2022-11-13T02:58:28.914Z,102033.00
2022-11-13T03:00:58.182Z,102034.00
2022-11-13T03:03:56.061Z,102022.00
2022-11-13T03:06:13.551Z,102024.00
2022-11-13T03:08:41.280Z,102023.00
2022-11-13T03:11:09.977Z,102025.00
2022-11-13T03:13:37.966Z,102025.00
2022-11-13T03:16:12.529Z,102023.00
2022-11-13T03:18:40.638Z,102018.00
2022-11-13T03:21:10.624Z,102012.00
2022-11-13T03:23:38.445Z,102009.00
2022-11-13T03:26:08.207Z,102007.00
2022-11-13T03:28:36.392Z,102013.00
2022-11-13T03:31:04.692Z,102001.00
2022-11-13T03:33:33.885Z,101993.00
2022-11-13T03:36:01.949Z,102001.00
2022-11-13T03:38:29.997Z,102008.00
2022-11-13T03:40:58.008Z,102004.00
2022-11-13T03:43:25.783Z,102003.00
2022-11-13T03:45:53.569Z,102003.00
2022-11-13T03:48:21.374Z,101989.00
2022-11-13T03:50:53.657Z,102003.00
2022-11-13T03:53:21.489Z,101994.00
2022-11-13T03:55:49.241Z,101980.00
2022-11-13T03:58:16.985Z,101996.00
2022-11-13T04:00:46.792Z,101993.00
2022-11-13T04:03:14.783Z,101988.00
2022-11-13T04:05:43.350Z,101989.00
2022-11-13T04:08:12.376Z,101997.00
2022-11-13T04:10:40.158Z,102005.00
2022-11-13T04:13:08.210Z,101989.00
2022-11-13T04:15:35.939Z,101982.00
2022-11-13T04:18:03.713Z,102003.00
2022-11-13T04:20:31.463Z,101990.00
2022-11-13T04:22:59.292Z,101987.00
2022-11-13T04:25:28.501Z,101981.00
2022-11-13T04:27:56.403Z,101971.00
2022-11-13T04:30:24.117Z,101961.00
2022-11-13T04:32:51.909Z,101976.00
2022-11-13T04:35:19.828Z,101968.00
2022-11-13T04:37:47.509Z,101973.00
2022-11-13T04:40:15.350Z,101975.00
2022-11-13T04:42:49.249Z,101974.00
2022-11-13T04:45:18.092Z,101966.00
2022-11-13T04:47:46.298Z,101964.00
2022-11-13T04:50:15.413Z,101950.00
2022-11-13T04:52:43.541Z,101952.00
2022-11-13T04:55:11.756Z,101947.00
2022-11-13T04:57:39.871Z,101949.00
2022-11-13T05:00:11.269Z,101933.00
2022-11-13T05:02:46.394Z,101880.00
2022-11-13T05:05:14.072Z,101937.00
2022-11-13T05:07:42.565Z,101933.00
2022-11-13T05:10:10.702Z,101924.00
2022-11-13T05:12:38.401Z,101935.00
2022-11-13T05:15:07.360Z,101934.00
2022-11-13T05:17:36.383Z,101927.00
2022-11-13T05:20:04.139Z,101938.00
2022-11-13T05:22:31.823Z,101935.00
2022-11-13T05:24:59.515Z,101939.00
2022-11-13T05:27:27.201Z,101937.00
2022-11-13T05:29:54.892Z,101948.00
2022-11-13T05:32:22.562Z,101940.00
2022-11-13T05:34:51.586Z,101937.00
2022-11-13T05:37:19.321Z,101944.00
2022-11-13T05:39:47.007Z,101937.00
2022-11-13T05:42:14.659Z,101931.00
2022-11-13T05:44:42.366Z,101928.00
2022-11-13T05:47:10.013Z,101930.00
2022-11-13T05:49:37.707Z,101922.00
2022-11-13T05:52:06.749Z,101919.00
2022-11-13T05:54:34.464Z,101925.00
2022-11-13T05:57:02.173Z,101915.00
2022-11-13T05:59:29.824Z,101915.00
2022-11-13T06:01:58.023Z,101923.00
2022-11-13T06:04:25.790Z,101910.00
2022-11-13T06:06:53.521Z,101919.00
2022-11-13T06:09:22.579Z,101913.00
2022-11-13T06:11:50.254Z,101921.00
2022-11-13T06:14:18.003Z,101906.00
2022-11-13T06:16:45.686Z,101896.00
2022-11-13T06:19:13.345Z,101892.00
2022-11-13T06:21:41.979Z,101900.00
2022-11-13T06:24:13.569Z,101893.00
2022-11-13T06:26:42.934Z,101880.00
2022-11-13T06:29:12.975Z,101873.00
2022-11-13T06:31:40.718Z,101897.00
2022-11-13T06:34:08.608Z,101888.00
2022-11-13T06:36:38.444Z,101885.00
2022-11-13T06:39:10.197Z,101894.00
2022-11-13T06:41:39.389Z,101886.00
2022-11-13T06:44:08.676Z,101889.00
2022-11-13T06:46:36.397Z,101900.00
2022-11-13T06:49:04.109Z,101903.00
2022-11-13T06:51:32.336Z,101908.00
2022-11-13T06:54:00.030Z,101907.00
2022-11-13T06:56:28.061Z,101909.00
2022-11-13T06:58:56.112Z,101908.00
2022-11-13T07:01:27.037Z,101919.00
2022-11-13T07:03:54.868Z,101925.00
2022-11-13T07:06:24.369Z,101916.00
2022-11-13T07:08:52.529Z,101911.00
2022-11-13T07:11:22.502Z,101916.00
2022-11-13T07:13:50.911Z,101919.00
2022-11-13T07:16:19.231Z,101920.00
2022-11-13T07:18:52.198Z,101920.00
2022-11-13T07:21:20.422Z,101920.00
2022-11-13T07:23:49.266Z,101933.00
2022-11-13T07:26:17.495Z,101939.00
2022-11-13T07:28:45.353Z,101918.00
2022-11-13T07:31:14.275Z,101922.00
2022-11-13T07:33:42.078Z,101917.00
2022-11-13T07:36:11.787Z,101913.00
2022-11-13T07:38:39.596Z,101915.00
2022-11-13T07:41:07.784Z,101917.00
2022-11-13T07:43:36.016Z,101911.00
2022-11-13T07:46:03.888Z,101918.00
2022-11-13T07:48:31.930Z,101913.00
2022-11-13T07:51:01.571Z,101916.00
2022-11-13T07:53:30.784Z,101905.00
2022-11-13T07:56:01.637Z,101902.00
2022-11-13T07:58:29.977Z,101900.00
2022-11-13T08:01:03.929Z,101903.00
2022-11-13T08:03:32.129Z,101900.00
2022-11-13T08:06:03.851Z,101899.00
2022-11-13T08:08:32.956Z,101894.00
2022-11-13T08:11:05.094Z,101892.00
2022-11-13T08:13:32.948Z,101901.00
2022-11-13T08:16:01.290Z,101897.00
2022-11-13T08:18:29.568Z,101899.00
2022-11-13T08:20:57.706Z,101905.00
2022-11-13T08:23:25.442Z,101903.00
2022-11-13T08:25:54.477Z,101904.00
2022-11-13T08:28:22.138Z,101899.00
2022-11-13T08:30:49.853Z,101900.00
2022-11-13T08:33:17.523Z,101902.00
2022-11-13T08:35:53.800Z,101890.00
2022-11-13T08:38:21.572Z,101912.00
2022-11-13T08:40:49.544Z,101897.00
2022-11-13T08:43:19.312Z,101903.00
2022-11-13T08:45:47.800Z,101903.00
2022-11-13T08:48:15.828Z,101893.00
2022-11-13T08:50:43.513Z,101900.00
2022-11-13T08:53:11.286Z,101893.00
2022-11-13T08:55:39.009Z,101898.00
2022-11-13T08:58:06.649Z,101894.00
2022-11-13T09:00:35.697Z,101899.00
2022-11-13T09:03:03.822Z,101903.00
2022-11-13T09:05:31.586Z,101907.00
2022-11-13T09:08:01.165Z,101898.00
2022-11-13T09:10:29.360Z,101913.00
2022-11-13T09:12:59.024Z,101914.00
2022-11-13T09:15:26.983Z,101909.00
2022-11-13T09:17:58.867Z,101913.00
2022-11-13T09:20:26.929Z,101911.00
2022-11-13T09:22:58.848Z,101905.00
2022-11-13T09:25:27.971Z,101911.00
2022-11-13T09:27:59.670Z,101915.00
2022-11-13T09:30:27.916Z,101896.00
2022-11-13T09:32:57.266Z,101913.00
2022-11-13T09:35:34.969Z,101911.00
2022-11-13T09:38:09.415Z,101909.00
2022-11-13T09:40:43.864Z,101905.00
2022-11-13T09:43:32.109Z,101907.00
2022-11-13T09:46:03.725Z,101908.00
2022-11-13T09:48:35.504Z,101913.00
2022-11-13T09:51:08.552Z,101910.00
2022-11-13T09:53:38.683Z,101901.00
2022-11-13T09:56:17.202Z,101898.00
2022-11-13T09:58:50.285Z,101892.00
2022-11-13T10:01:26.018Z,101896.00
2022-11-13T10:04:02.514Z,101897.00
2022-11-13T10:06:45.535Z,101892.00
2022-11-13T10:09:23.156Z,101881.00
2022-11-13T10:11:56.429Z,101886.00
2022-11-13T10:14:28.061Z,101871.00
2022-11-13T10:16:59.306Z,101870.00
2022-11-13T10:19:35.179Z,101864.00
2022-11-13T10:22:31.506Z,101860.00
2022-11-13T10:25:04.193Z,101860.00
2022-11-13T10:27:31.912Z,101859.00
2022-11-13T10:29:59.583Z,101857.00
2022-11-13T10:32:31.220Z,101860.00
2022-11-13T10:35:02.276Z,101869.00
2022-11-13T10:37:44.155Z,101861.00
2022-11-13T10:40:11.961Z,101872.00
2022-11-13T10:42:42.926Z,101877.00
2022-11-13T10:45:18.015Z,101871.00
2022-11-13T10:48:03.850Z,101857.00
2022-11-13T10:50:33.696Z,101864.00
2022-11-13T10:53:02.752Z,101858.00
2022-11-13T10:55:38.759Z,101853.00
2022-11-13T10:58:14.058Z,101858.00
2022-11-13T11:00:44.430Z,101850.00
2022-11-13T11:03:16.839Z,101852.00
2022-11-13T11:05:54.021Z,101840.00
2022-11-13T11:08:29.566Z,101845.00
2022-11-13T11:11:18.227Z,101838.00
2022-11-13T11:13:46.366Z,101833.00
2022-11-13T11:16:20.824Z,101826.00
2022-11-13T11:18:53.552Z,101824.00
2022-11-13T11:21:26.418Z,101820.00
2022-11-13T11:23:59.802Z,101812.00
2022-11-13T11:26:32.737Z,101817.00
2022-11-13T11:29:09.807Z,101817.00
2022-11-13T11:31:42.664Z,101804.00
2022-11-13T11:34:17.843Z,101810.00
2022-11-13T11:36:55.786Z,101805.00
2022-11-13T11:39:38.526Z,101807.00
2022-11-13T11:42:21.906Z,101800.00
2022-11-13T11:45:01.032Z,101801.00
2022-11-13T11:47:29.098Z,101797.00
2022-11-13T11:49:57.000Z,101797.00
2022-11-13T11:52:47.227Z,101799.00
2022-11-13T11:55:32.437Z,101798.00
2022-11-13T11:58:07.361Z,101786.00
2022-11-13T12:00:40.747Z,101790.00
2022-11-13T12:03:48.127Z,101780.00
2022-11-13T12:06:21.830Z,101782.00
2022-11-13T12:08:57.003Z,101785.00
2022-11-13T12:11:30.453Z,101771.00
2022-11-13T12:14:09.819Z,101768.00
2022-11-13T12:16:45.512Z,101757.00
2022-11-13T12:19:23.117Z,101756.00
2022-11-13T12:22:00.777Z,101750.00
2022-11-13T12:24:49.334Z,101746.00
2022-11-13T12:27:27.515Z,101745.00
2022-11-13T12:30:08.745Z,101742.00
2022-11-13T12:32:47.762Z,101734.00
2022-11-13T12:35:19.581Z,101738.00
2022-11-13T12:37:52.237Z,101748.00
2022-11-13T12:40:28.400Z,101745.00
2022-11-13T12:43:07.070Z,101752.00
2022-11-13T12:45:51.756Z,101752.00
2022-11-13T12:48:28.975Z,101752.00
2022-11-13T12:51:01.851Z,101738.00
2022-11-13T12:53:31.312Z,101742.00
2022-11-13T12:56:01.288Z,101742.00
2022-11-13T12:58:32.650Z,101745.00
2022-11-13T13:01:06.583Z,101748.00
2022-11-13T13:03:47.786Z,101749.00
2022-11-13T13:06:30.399Z,101741.00
2022-11-13T13:09:06.650Z,101741.00
2022-11-13T13:11:42.673Z,101734.00
2022-11-13T13:14:37.323Z,101723.00
2022-11-13T13:17:18.985Z,101725.00
2022-11-13T13:19:46.787Z,101727.00
2022-11-13T13:22:26.765Z,101721.00
2022-11-13T13:25:00.971Z,101724.00
2022-11-13T13:27:30.616Z,101715.00
2022-11-13T13:30:00.265Z,101727.00
2022-11-13T13:32:36.199Z,101706.00
2022-11-13T13:35:09.891Z,101709.00
2022-11-13T13:37:44.658Z,101708.00
2022-11-13T13:40:21.699Z,101698.00
2022-11-13T13:43:07.781Z,101696.00
2022-11-13T13:45:48.227Z,101694.00
2022-11-13T13:48:20.749Z,101701.00
2022-11-13T13:50:50.658Z,101703.00
2022-11-13T13:53:23.528Z,101688.00
2022-11-13T13:55:54.006Z,101679.00
2022-11-13T13:58:27.501Z,101688.00
2022-11-13T14:01:17.724Z,101682.00
2022-11-13T14:03:46.779Z,101687.00
2022-11-13T14:06:22.260Z,101678.00
2022-11-13T14:08:50.146Z,101674.00
2022-11-13T14:11:20.274Z,101676.00
2022-11-13T14:13:48.066Z,101669.00
2022-11-13T14:16:17.096Z,101665.00
2022-11-13T14:18:44.804Z,101662.00
2022-11-13T14:21:18.043Z,101666.00
2022-11-13T14:23:49.805Z,101672.00
2022-11-13T14:26:18.362Z,101668.00
2022-11-13T14:28:53.887Z,101674.00
2022-11-13T14:31:29.795Z,101683.00
2022-11-13T14:33:58.985Z,101680.00
2022-11-13T14:36:30.072Z,101678.00
2022-11-13T14:38:58.777Z,101673.00
2022-11-13T14:41:34.007Z,101671.00
2022-11-13T14:44:01.763Z,101673.00
2022-11-13T14:46:35.120Z,101676.00
2022-11-13T14:49:03.358Z,101665.00
2022-11-13T14:51:32.846Z,101658.00
2022-11-13T14:54:06.238Z,101653.00
2022-11-13T14:56:38.324Z,101657.00
2022-11-13T14:59:11.668Z,101664.00
2022-11-13T15:01:54.884Z,101651.00
2022-11-13T15:04:23.793Z,101657.00
2022-11-13T15:06:55.433Z,101654.00
2022-11-13T15:09:25.392Z,101660.00
2022-11-13T15:11:53.443Z,101653.00
2022-11-13T15:14:22.958Z,101649.00
2022-11-13T15:16:54.264Z,101661.00
2022-11-13T15:19:34.359Z,101644.00
2022-11-13T15:24:50.192Z,101638.00
2022-11-13T15:27:18.639Z,101639.00
2022-11-13T15:29:46.419Z,101641.00
2022-11-13T15:32:16.693Z,101632.00
2022-11-13T15:34:44.393Z,101638.00
2022-11-13T15:37:13.809Z,101636.00
2022-11-13T15:39:41.512Z,101639.00
2022-11-13T15:42:14.248Z,101637.00
2022-11-13T15:44:41.915Z,101643.00
2022-11-13T15:47:26.558Z,101637.00
2022-11-13T15:50:13.973Z,101631.00
2022-11-13T15:52:44.294Z,101642.00
2022-11-13T15:55:21.353Z,101631.00
2022-11-13T15:57:49.501Z,101630.00
2022-11-13T16:00:21.302Z,101627.00
2022-11-13T16:02:52.039Z,101624.00
2022-11-13T16:05:19.820Z,101627.00
2022-11-13T16:07:47.501Z,101622.00
2022-11-13T16:10:16.301Z,101625.00
2022-11-13T16:12:45.753Z,101615.00
2022-11-13T16:15:16.681Z,101614.00
2022-11-13T16:17:47.254Z,101604.00
2022-11-13T16:20:18.188Z,101604.00
2022-11-13T16:22:46.292Z,101617.00
2022-11-13T16:25:16.520Z,101617.00
2022-11-13T16:27:44.724Z,101608.00
2022-11-13T16:30:17.016Z,101599.00
2022-11-13T16:32:44.752Z,101602.00
2022-11-13T16:35:18.380Z,101600.00
2022-11-13T16:37:47.325Z,101606.00
2022-11-13T16:40:21.946Z,101603.00
2022-11-13T16:42:49.682Z,101603.00
2022-11-13T16:45:17.473Z,101598.00
2022-11-13T16:47:46.411Z,101593.00
2022-11-13T16:50:17.531Z,101595.00
2022-11-13T16:52:45.222Z,101601.00
2022-11-13T16:55:13.186Z,101599.00
2022-11-13T16:57:41.200Z,101591.00
2022-11-13T17:00:13.000Z,101578.00
2022-11-13T17:02:40.954Z,101577.00
2022-11-13T17:05:13.109Z,101570.00
2022-11-13T17:07:42.376Z,101565.00
2022-11-13T17:13:01.457Z,101555.00
2022-11-13T17:15:29.692Z,101559.00
2022-11-13T17:18:02.554Z,101523.00
2022-11-13T17:20:30.296Z,101552.00
2022-11-13T17:22:59.522Z,101548.00
2022-11-13T17:25:28.033Z,101549.00
2022-11-13T17:27:55.849Z,101554.00
2022-11-13T17:30:23.971Z,101536.00
2022-11-13T17:32:51.684Z,101547.00
2022-11-13T17:35:19.347Z,101554.00
2022-11-13T17:37:47.024Z,101543.00
2022-11-13T17:40:16.760Z,101551.00
2022-11-13T17:42:44.423Z,101543.00
2022-11-13T17:45:12.129Z,101549.00
2022-11-13T17:47:39.864Z,101547.00
2022-11-13T17:50:08.471Z,101550.00
2022-11-13T17:52:36.156Z,101552.00
2022-11-13T17:55:06.168Z,101524.00
2022-11-13T17:57:35.446Z,101552.00
2022-11-13T18:00:04.138Z,101560.00
2022-11-13T18:02:31.797Z,101544.00
2022-11-13T18:05:01.274Z,101538.00
2022-11-13T18:07:29.618Z,101543.00
2022-11-13T18:09:57.624Z,101542.00
2022-11-13T18:12:25.358Z,101542.00
2022-11-13T18:14:54.435Z,101540.00
2022-11-13T18:17:23.309Z,101533.00
2022-11-13T18:19:54.767Z,101535.00
2022-11-13T18:22:26.414Z,101527.00
2022-11-13T18:24:55.457Z,101541.00
2022-11-13T18:27:23.192Z,101535.00
2022-11-13T18:29:50.892Z,101531.00
2022-11-13T18:32:20.484Z,101546.00
2022-11-13T18:34:48.156Z,101542.00
2022-11-13T18:37:15.996Z,101531.00
2022-11-13T18:39:43.710Z,101531.00
2022-11-13T18:42:11.357Z,101514.00
2022-11-13T18:44:39.030Z,101523.00
2022-11-13T18:47:06.894Z,101512.00
2022-11-13T18:49:35.937Z,101518.00
2022-11-13T18:52:03.665Z,101518.00
2022-11-13T18:54:31.369Z,101518.00
2022-11-13T18:56:59.112Z,101503.00
2022-11-13T18:59:27.169Z,101494.00
2022-11-13T19:01:54.976Z,101498.00
2022-11-13T19:04:23.926Z,101503.00
2022-11-13T19:06:53.746Z,101480.00
2022-11-13T19:09:21.562Z,101500.00
2022-11-13T19:11:50.230Z,101484.00
2022-11-13T19:14:19.313Z,101489.00
2022-11-13T19:16:47.445Z,101486.00
2022-11-13T19:19:17.174Z,101481.00
2022-11-13T19:21:45.223Z,101479.00
2022-11-13T19:24:14.885Z,101461.00
2022-11-13T19:26:43.395Z,101457.00
2022-11-13T19:29:11.634Z,101459.00
2022-11-13T19:31:39.367Z,101453.00
2022-11-13T19:34:08.644Z,101451.00
2022-11-13T19:36:37.609Z,101444.00
2022-11-13T19:39:06.133Z,101443.00
2022-11-13T19:41:35.177Z,101442.00
2022-11-13T19:44:02.953Z,101438.00
2022-11-13T19:46:31.956Z,101442.00
2022-11-13T19:48:59.784Z,101439.00
2022-11-13T19:51:27.625Z,101438.00
2022-11-13T19:53:56.397Z,101428.00
2022-11-13T19:56:25.602Z,101423.00
2022-11-13T19:58:54.709Z,101419.00
2022-11-13T20:01:24.937Z,101424.00
2022-11-13T20:03:56.297Z,101422.00
2022-11-13T20:06:24.603Z,101414.00
2022-11-13T20:08:52.373Z,101414.00
2022-11-13T20:11:20.400Z,101404.00
2022-11-13T20:13:48.147Z,101412.00
2022-11-13T20:16:20.865Z,101404.00
2022-11-13T20:18:48.946Z,101402.00
2022-11-13T20:21:16.669Z,101403.00
2022-11-13T20:23:44.901Z,101407.00
2022-11-13T20:26:16.592Z,101402.00
2022-11-13T20:28:44.363Z,101405.00
2022-11-13T20:31:16.421Z,101404.00
2022-11-13T20:33:45.659Z,101408.00
2022-11-13T20:36:13.955Z,101393.00
2022-11-13T20:38:44.046Z,101393.00
2022-11-13T20:41:12.664Z,101397.00
2022-11-13T20:43:40.623Z,101389.00
2022-11-13T20:46:11.126Z,101393.00
2022-11-13T20:48:39.071Z,101382.00
2022-11-13T20:51:09.577Z,101376.00
2022-11-13T20:53:37.431Z,101378.00
2022-11-13T20:56:05.793Z,101375.00
2022-11-13T20:58:33.496Z,101372.00
2022-11-13T21:01:05.118Z,101391.00
2022-11-13T21:03:35.984Z,101368.00
2022-11-13T21:06:10.268Z,101375.00
2022-11-13T21:08:38.632Z,101361.00
2022-11-13T21:11:07.793Z,101364.00
2022-11-13T21:13:35.510Z,101361.00
2022-11-13T21:16:06.187Z,101361.00
2022-11-13T21:18:33.894Z,101351.00
2022-11-13T21:21:06.012Z,101346.00
2022-11-13T21:23:35.083Z,101359.00
2022-11-13T21:26:03.309Z,101343.00
2022-11-13T21:28:33.691Z,101347.00
2022-11-13T21:31:03.089Z,101338.00
2022-11-13T21:33:30.875Z,101347.00
2022-11-13T21:36:05.240Z,101333.00
2022-11-13T21:38:33.345Z,101338.00
2022-11-13T21:41:20.978Z,101324.00
2022-11-13T21:43:49.000Z,101339.00
2022-11-13T21:46:16.931Z,101324.00
2022-11-13T21:48:45.267Z,101324.00
2022-11-13T21:51:13.417Z,101335.00
2022-11-13T21:53:42.714Z,101322.00
2022-11-13T21:56:15.673Z,101327.00
2022-11-13T21:58:44.241Z,101322.00
2022-11-13T22:01:13.031Z,101330.00
2022-11-13T22:03:41.127Z,101326.00
2022-11-13T22:06:20.766Z,101326.00
2022-11-13T22:08:55.723Z,101321.00
2022-11-13T22:11:25.494Z,101319.00
2022-11-13T22:13:53.431Z,101314.00
2022-11-13T22:16:21.699Z,101314.00
2022-11-13T22:18:53.689Z,101304.00
2022-11-13T22:21:21.784Z,101320.00
2022-11-13T22:23:49.824Z,101311.00
2022-11-13T22:26:19.202Z,101305.00
2022-11-13T22:28:49.036Z,101306.00
2022-11-13T22:31:18.689Z,101309.00
2022-11-13T22:33:50.490Z,101298.00
2022-11-13T22:36:21.877Z,101300.00
2022-11-13T22:38:49.879Z,101297.00
2022-11-13T22:41:22.867Z,101308.00
2022-11-13T22:43:54.282Z,101284.00
2022-11-13T22:46:23.751Z,101295.00
2022-11-13T22:48:52.737Z,101293.00
2022-11-13T22:51:22.227Z,101298.00
2022-11-13T22:53:51.165Z,101293.00
2022-11-13T22:56:19.886Z,101282.00
2022-11-13T22:58:47.797Z,101281.00
2022-11-13T23:01:19.190Z,101277.00
2022-11-13T23:03:49.879Z,101271.00
2022-11-13T23:06:20.451Z,101262.00
2022-11-13T23:08:49.327Z,101261.00
2022-11-13T23:11:19.632Z,101265.00
2022-11-13T23:13:49.105Z,101257.00
2022-11-13T23:16:18.947Z,101257.00
2022-11-13T23:18:46.996Z,101257.00
2022-11-13T23:21:15.688Z,101251.00
2022-11-13T23:23:44.014Z,101239.00
2022-11-13T23:26:13.540Z,101250.00
2022-11-13T23:28:41.744Z,101255.00
2022-11-13T23:31:09.676Z,101254.00
2022-11-13T23:33:40.210Z,101247.00
2022-11-13T23:36:09.407Z,101241.00
2022-11-13T23:38:37.550Z,101239.00
2022-11-13T23:41:06.552Z,101232.00
2022-11-13T23:44:02.215Z,101234.00
2022-11-13T23:46:22.005Z,101227.00
2022-11-13T23:48:51.056Z,101214.00
2022-11-13T23:51:18.773Z,101218.00
2022-11-13T23:53:46.424Z,101220.00
2022-11-13T23:56:14.190Z,101238.00
2022-11-13T23:58:41.891Z,101215.00
